Ormi — HPDQ — position and weather

sailwx.info

Track history (hours):
 
Tides and Currents Weather Stations Pressure Air Temp Water Temp Dewpoint Dewpoint Depression Visibility Wind Speed Wind Dir Waves Ship Positions

Ormi

Last reported at 2017-Oct-04 06:37 UTC. Time now 2017-Oct-17 22:56 UTC.
Position N 44°33' E 013°37'.
Warning: this ship's position is 13 days out of date.

Length 151 m; draft 5.2 m.

Type: Cargo ship. MMSI: 351931000.

Date/timePositionNaut miles runAvg speedWind from/ knotsBaromVisibWave heightAir tempDewpointWater temp
2017-Oct-04 06:37N 44°33' E 013°37'3 9.2
2017-Oct-04 06:16N 44°36' E 013°35'3 9.0
2017-Oct-04 05:54N 44°39' E 013°32'4 8.9
2017-Oct-04 05:30N 44°42' E 013°30'4 9.0
2017-Oct-04 05:00N 44°45' E 013°26'5 9.1
2017-Oct-04 04:30N 44°49' E 013°22'4 8.9
2017-Oct-04 04:00N 44°53' E 013°19'4 8.8
2017-Oct-04 03:30N 44°56' E 013°16'4 8.5
2017-Oct-04 03:00N 44°60' E 013°12'5 9.2
2017-Oct-04 02:30N 45°04' E 013°09'5 9.4
2017-Oct-04 02:00N 45°08' E 013°05'5 9.8
2017-Oct-04 01:30N 45°12' E 013°03'5 9.9
2017-Oct-04 01:00N 45°17' E 013°01'4 8.5
2017-Oct-04 00:30N 45°21' E 013°02'5 9.6
2017-Oct-04 00:00N 45°25' E 013°07'5 9.8
2017-Oct-03 23:30N 45°28' E 013°12'510.0
2017-Oct-03 23:00N 45°32' E 013°17'5 9.8
2017-Oct-03 22:30N 45°35' E 013°23'5 9.9
2017-Oct-03 22:00N 45°37' E 013°29'5 9.4
2017-Oct-03 21:30N 45°37' E 013°36'5 9.3
2017-Oct-03 21:00N 45°34' E 013°41'3 4.3
2017-Oct-03 20:25N 45°33' E 013°44'0 0.0
2017-Oct-03 19:55N 45°33' E 013°44'0 0.0
2017-Oct-03 19:28N 45°33' E 013°44'0 0.0
2017-Oct-03 18:58N 45°33' E 013°44'0 0.0
2017-Oct-03 18:28N 45°33' E 013°44'0 0.0
2017-Oct-03 17:58N 45°33' E 013°44'0 0.0
2017-Oct-03 17:28N 45°33' E 013°44'0 0.0
2017-Oct-03 16:55N 45°33' E 013°44'0 0.0
2017-Oct-03 16:28N 45°33' E 013°44'0 0.0
2017-Oct-03 15:52N 45°33' E 013°44'0 0.1
2017-Oct-03 15:25N 45°34' E 013°44'0 0.1
2017-Oct-03 14:58N 45°33' E 013°44'0 0.0
2017-Oct-03 13:49N 45°33' E 013°44'0 0.0
2017-Oct-03 13:28N 45°33' E 013°44'0 0.0
2017-Oct-03 12:55N 45°33' E 013°44'0 0.0
2017-Oct-03 12:25N 45°33' E 013°44'0 0.0
2017-Oct-03 11:58N 45°33' E 013°44'0 0.0
2017-Oct-03 11:25N 45°33' E 013°44'0 0.0
2017-Oct-03 10:55N 45°33' E 013°44'0 0.0
2017-Oct-03 10:28N 45°33' E 013°44'0 0.0
2017-Oct-03 09:55N 45°33' E 013°44'0 0.0
2017-Oct-03 09:28N 45°33' E 013°44'0 0.0
2017-Oct-03 08:58N 45°33' E 013°44'0 0.0
2017-Oct-03 08:28N 45°33' E 013°44'0 0.0
2017-Oct-03 07:55N 45°33' E 013°44'0 0.0
2017-Oct-03 07:25N 45°33' E 013°44'0 0.0
2017-Oct-03 06:58N 45°33' E 013°44'0 0.0
2017-Oct-03 06:28N 45°33' E 013°44'0 0.0
2017-Oct-03 05:58N 45°33' E 013°44'0 0.0
2017-Oct-03 05:28N 45°33' E 013°44'0 0.0
2017-Oct-03 04:58N 45°33' E 013°44'0 0.0
2017-Oct-03 04:28N 45°33' E 013°44'0 0.0
2017-Oct-03 03:58N 45°33' E 013°44'0 0.0
2017-Oct-03 03:22N 45°33' E 013°44'0 0.0
2017-Oct-03 02:58N 45°33' E 013°44'0 0.0
2017-Oct-03 02:28N 45°33' E 013°44'0 0.0
2017-Oct-03 01:58N 45°33' E 013°44'0 0.0
2017-Oct-03 01:25N 45°33' E 013°44'0 0.0
2017-Oct-03 00:58N 45°33' E 013°44'0 0.0
2017-Oct-03 00:31N 45°33' E 013°44'0 0.0
2017-Oct-02 23:55N 45°33' E 013°44'0 0.0
2017-Oct-02 23:29N 45°33' E 013°44'0 0.0
2017-Oct-02 22:59N 45°33' E 013°44'0 0.0
2017-Oct-02 22:26N 45°33' E 013°44'0 0.0
2017-Oct-02 21:59N 45°33' E 013°44'0 0.0
2017-Oct-02 21:29N 45°33' E 013°44'0 0.0
2017-Oct-02 20:59N 45°33' E 013°44'0 0.0
2017-Oct-02 20:17N 45°33' E 013°44'0 0.0
2017-Oct-02 19:59N 45°33' E 013°44'0 0.0
2017-Oct-02 19:14N 45°33' E 013°44'0 0.0
2017-Oct-02 18:56N 45°33' E 013°44'0 0.0
2017-Oct-02 18:29N 45°33' E 013°44'0 0.0
2017-Oct-02 17:59N 45°33' E 013°44'0 0.0
2017-Oct-02 17:29N 45°33' E 013°44'0 0.0
2017-Oct-02 16:59N 45°33' E 013°44'0 0.0
2017-Oct-02 16:29N 45°33' E 013°44'0 0.0
2017-Oct-02 15:56N 45°33' E 013°44'0 0.0
2017-Oct-02 15:29N 45°33' E 013°44'0 0.0
2017-Oct-02 14:59N 45°33' E 013°44'0 0.0
2017-Oct-02 14:26N 45°33' E 013°44'0 0.1
2017-Oct-02 13:50N 45°34' E 013°44'0 0.1
2017-Oct-02 13:23N 45°33' E 013°44'0 0.0
2017-Oct-02 12:59N 45°33' E 013°44'0 0.0
2017-Oct-02 12:26N 45°33' E 013°44'0 0.0
2017-Oct-02 11:56N 45°33' E 013°44'0 0.0
2017-Oct-02 11:23N 45°33' E 013°44'0 0.0
2017-Oct-02 10:56N 45°33' E 013°44'0 0.0
2017-Oct-02 10:29N 45°33' E 013°44'0 0.0
2017-Oct-02 09:56N 45°33' E 013°44'0 0.0
2017-Oct-02 09:26N 45°33' E 013°44'0 0.0
2017-Oct-02 08:56N 45°33' E 013°44'0 0.0
2017-Oct-02 08:29N 45°33' E 013°44'0 0.0
2017-Oct-02 07:47N 45°33' E 013°44'0 0.0
2017-Oct-02 07:29N 45°33' E 013°44'0 0.0
2017-Oct-02 06:50N 45°33' E 013°44'0 0.0
2017-Oct-02 06:20N 45°33' E 013°44'0 0.0
2017-Oct-02 05:59N 45°33' E 013°44'0 0.0
2017-Oct-02 05:29N 45°33' E 013°44'0 0.0
2017-Oct-02 04:59N 45°33' E 013°44'0 0.0
2017-Oct-02 04:29N 45°33' E 013°44'0 0.0
2017-Oct-02 03:53N 45°33' E 013°44'0 0.0
2017-Oct-02 03:29N 45°33' E 013°44'0 0.0
2017-Oct-02 02:59N 45°33' E 013°44'0 0.0
2017-Oct-02 02:26N 45°33' E 013°44'0 0.0
2017-Oct-02 01:59N 45°33' E 013°44'0 0.0
2017-Oct-02 01:26N 45°33' E 013°44'0 0.0
2017-Oct-02 00:53N 45°33' E 013°44'0 0.0
2017-Oct-02 00:29N 45°33' E 013°44'0 0.0
2017-Oct-01 23:59N 45°33' E 013°44'0 0.0
2017-Oct-01 23:26N 45°33' E 013°44'0 0.0
2017-Oct-01 22:59N 45°33' E 013°44'0 0.0
2017-Oct-01 22:26N 45°33' E 013°44'0 0.0
2017-Oct-01 21:53N 45°33' E 013°44'0 0.0
2017-Oct-01 21:29N 45°33' E 013°44'0 0.0
2017-Oct-01 20:59N 45°33' E 013°44'0 0.0
2017-Oct-01 20:29N 45°33' E 013°44'0 0.0
2017-Oct-01 19:59N 45°33' E 013°44'0 0.0
2017-Oct-01 19:29N 45°33' E 013°44'0 0.0
2017-Oct-01 18:59N 45°33' E 013°44'0 0.0
2017-Oct-01 18:29N 45°33' E 013°44'0 0.0
2017-Oct-01 17:59N 45°33' E 013°44'0 0.0
2017-Oct-01 17:29N 45°33' E 013°44'0 0.0
2017-Oct-01 16:59N 45°33' E 013°44'0 0.0
2017-Oct-01 16:29N 45°33' E 013°44'0 0.0
2017-Oct-01 15:59N 45°33' E 013°44'0 0.0
2017-Oct-01 15:26N 45°33' E 013°44'0 0.0
2017-Oct-01 14:59N 45°33' E 013°44'0 0.0
2017-Oct-01 14:29N 45°33' E 013°44'0 0.0
2017-Oct-01 13:56N 45°33' E 013°44'0 0.0
2017-Oct-01 13:29N 45°33' E 013°44'0 0.0
2017-Oct-01 12:59N 45°33' E 013°44'0 0.0
2017-Oct-01 12:26N 45°33' E 013°44'0 0.0
2017-Oct-01 11:59N 45°33' E 013°44'0 0.0
2017-Oct-01 11:26N 45°33' E 013°44'0 0.0
2017-Oct-01 10:59N 45°33' E 013°44'0 0.0
2017-Oct-01 10:29N 45°33' E 013°44'0 0.0
2017-Oct-01 09:53N 45°33' E 013°44'0 0.0
2017-Oct-01 09:29N 45°33' E 013°44'0 0.0
2017-Oct-01 08:53N 45°33' E 013°44'0 0.0
2017-Oct-01 08:29N 45°33' E 013°44'0 0.0
2017-Oct-01 07:59N 45°33' E 013°44'0 0.0
2017-Oct-01 07:29N 45°33' E 013°44'0 0.0
2017-Oct-01 06:59N 45°33' E 013°44'0 0.0
2017-Oct-01 06:29N 45°33' E 013°44'0 0.0
2017-Oct-01 05:59N 45°33' E 013°44'0 0.0
2017-Oct-01 05:29N 45°33' E 013°44'0 0.0
2017-Oct-01 04:59N 45°33' E 013°44'0 0.0
2017-Oct-01 04:29N 45°33' E 013°44'0 0.0
2017-Oct-01 03:56N 45°33' E 013°44'0 0.0
2017-Oct-01 03:26N 45°33' E 013°44'0 0.0
2017-Oct-01 02:59N 45°33' E 013°44'0 0.0
2017-Sep-30 01:59N 45°33' E 013°44'0 0.0
2017-Sep-30 01:29N 45°33' E 013°44'0 0.0
2017-Sep-30 00:59N 45°33' E 013°44'0 0.0
2017-Sep-30 00:29N 45°33' E 013°44'0 0.0
2017-Sep-29 23:56N 45°33' E 013°44'0 0.0
2017-Sep-29 23:29N 45°33' E 013°44'0 0.0
2017-Sep-29 22:59N 45°33' E 013°44'0 0.0
2017-Sep-29 22:29N 45°33' E 013°44'0 0.0
2017-Sep-29 21:59N 45°33' E 013°44'0 0.0
2017-Sep-29 21:29N 45°33' E 013°44'0 0.0
2017-Sep-29 20:59N 45°33' E 013°44'0 0.0
2017-Sep-29 20:26N 45°33' E 013°44'0 0.0
2017-Sep-29 19:59N 45°33' E 013°44'0 0.0
2017-Sep-29 19:26N 45°33' E 013°44'0 0.0
2017-Sep-29 18:59N 45°33' E 013°44'0 0.0
2017-Sep-29 18:26N 45°33' E 013°44'0 0.0
2017-Sep-29 17:56N 45°33' E 013°44'0 0.0
2017-Sep-29 17:29N 45°33' E 013°44'0 0.0
2017-Sep-29 16:59N 45°33' E 013°44'0 0.0
2017-Sep-29 16:29N 45°33' E 013°44'0 0.0
2017-Sep-29 15:59N 45°33' E 013°44'0 0.0
2017-Sep-29 15:29N 45°33' E 013°44'0 0.0
2017-Sep-29 14:59N 45°33' E 013°44'0 0.0
2017-Sep-29 14:29N 45°33' E 013°44'0 0.0
2017-Sep-29 13:59N 45°33' E 013°44'0 0.0
2017-Sep-29 13:29N 45°33' E 013°44'0 0.0
2017-Sep-29 12:59N 45°33' E 013°44'0 0.1
2017-Sep-29 12:29N 45°34' E 013°44'0 0.1
2017-Sep-29 11:59N 45°33' E 013°44'0 0.0
2017-Sep-29 11:26N 45°33' E 013°44'0 0.0
2017-Sep-29 10:59N 45°33' E 013°44'0 0.0
2017-Sep-29 10:29N 45°33' E 013°44'0 0.0
2017-Sep-29 09:59N 45°33' E 013°44'0 0.0
2017-Sep-29 09:29N 45°33' E 013°44'0 0.0
2017-Sep-29 08:59N 45°33' E 013°44'0 0.0
2017-Sep-29 08:23N 45°33' E 013°44'0 0.0
2017-Sep-29 07:59N 45°33' E 013°44'0 0.0
2017-Sep-29 07:29N 45°33' E 013°44'0 0.0
2017-Sep-29 06:59N 45°33' E 013°44'0 0.0
2017-Sep-29 06:14N 45°33' E 013°44'0 0.0
2017-Sep-29 05:59N 45°33' E 013°44'0 0.0
2017-Sep-29 05:14N 45°33' E 013°44'0 0.0
2017-Sep-29 04:59N 45°33' E 013°44'0 0.8
2017-Sep-29 04:30N 45°33' E 013°44'2 4.2
2017-Sep-29 04:00N 45°35' E 013°41'1 1.2
2017-Sep-29 03:30N 45°35' E 013°41'0 0.0
2017-Sep-29 03:00N 45°35' E 013°41'0 0.0
2017-Sep-29 02:30N 45°35' E 013°41'0 0.1
2017-Sep-29 01:57N 45°35' E 013°41'0 0.1
2017-Sep-29 01:30N 45°35' E 013°41'0 0.0
2017-Sep-29 01:00N 45°35' E 013°41'0 0.0
2017-Sep-29 00:30N 45°35' E 013°41'0 0.1
2017-Sep-29 00:00N 45°35' E 013°41'0 0.1
2017-Sep-28 23:30N 45°35' E 013°41'0 0.0
2017-Sep-28 23:00N 45°35' E 013°41'0 0.1
2017-Sep-28 22:30N 45°35' E 013°41'0 0.1
2017-Sep-28 22:00N 45°35' E 013°41'0 0.0
2017-Sep-28 21:30N 45°35' E 013°41'0 0.7
2017-Sep-28 21:00N 45°35' E 013°40'2 4.1
2017-Sep-28 20:31N 45°35' E 013°37'4 7.2
2017-Sep-28 20:00N 45°35' E 013°32'4 7.6
2017-Sep-28 19:30N 45°32' E 013°28'4 7.4
2017-Sep-28 19:00N 45°30' E 013°23'3 6.9
2017-Sep-28 18:30N 45°29' E 013°19'3 6.9
2017-Sep-28 18:00N 45°27' E 013°15'3 6.4
2017-Sep-28 17:31N 45°24' E 013°12'4 7.8
2017-Sep-28 17:00N 45°20' E 013°13'4 7.6
2017-Sep-28 16:30N 45°17' E 013°14'4 7.8
2017-Sep-28 16:00N 45°13' E 013°15'4 7.9
2017-Sep-28 15:30N 45°09' E 013°16'4 8.2
2017-Sep-28 15:00N 45°05' E 013°17'4 8.2
2017-Sep-28 14:30N 45°01' E 013°18'3 6.6
2017-Sep-28 14:00N 44°58' E 013°20'4 7.9
2017-Sep-28 13:30N 44°55' E 013°23'4 8.1
2017-Sep-28 13:00N 44°51' E 013°26'4 8.8
2017-Sep-28 12:30N 44°48' E 013°30'4 8.9
2017-Sep-28 12:00N 44°44' E 013°33'4 8.8
2017-Sep-28 11:31N 44°40' E 013°37'4 8.8
2017-Sep-28 11:00N 44°37' E 013°40'4 8.6
2017-Sep-28 10:30N 44°33' E 013°43'4 8.5
2017-Sep-28 10:00N 44°30' E 013°47'7 8.2
2017-Sep-28 09:05N 44°23' E 013°53'1 8.2
2017-Sep-28 08:59N 44°23' E 013°53'  
2017-Sep-25 04:11N 36°36' E 014°47'3 8.7
2017-Sep-25 03:54N 36°37' E 014°44'4 8.9
2017-Sep-25 03:25N 36°38' E 014°39'4 8.9
2017-Sep-25 03:00N 36°40' E 014°35'8 8.7
2017-Sep-25 02:04N 36°43' E 014°25'2 8.6
2017-Sep-25 01:52N 36°43' E 014°23'  
Track history (hours):
 
Tides and Currents Weather Stations Pressure Air Temp Water Temp Dewpoint Dewpoint Depression Visibility Wind Speed Wind Dir Waves Ship Positions

Ormi

Last reported at 2017-Oct-04 06:37 UTC. Time now 2017-Oct-17 22:56 UTC.
Position N 44°33' E 013°37'.
Warning: this ship's position is 13 days out of date.

Length 151 m; draft 5.2 m.

Type: Cargo ship. MMSI: 351931000.

Date/timePositionNaut miles runAvg speedWind from/ knotsBaromVisibWave heightAir tempDewpointWater temp
2017-Oct-04 06:37N 44°33' E 013°37'3 9.2
2017-Oct-04 06:16N 44°36' E 013°35'3 9.0
2017-Oct-04 05:54N 44°39' E 013°32'4 8.9
2017-Oct-04 05:30N 44°42' E 013°30'4 9.0
2017-Oct-04 05:00N 44°45' E 013°26'5 9.1
2017-Oct-04 04:30N 44°49' E 013°22'4 8.9
2017-Oct-04 04:00N 44°53' E 013°19'4 8.8
2017-Oct-04 03:30N 44°56' E 013°16'4 8.5
2017-Oct-04 03:00N 44°60' E 013°12'5 9.2
2017-Oct-04 02:30N 45°04' E 013°09'5 9.4
2017-Oct-04 02:00N 45°08' E 013°05'5 9.8
2017-Oct-04 01:30N 45°12' E 013°03'5 9.9
2017-Oct-04 01:00N 45°17' E 013°01'4 8.5
2017-Oct-04 00:30N 45°21' E 013°02'5 9.6
2017-Oct-04 00:00N 45°25' E 013°07'5 9.8
2017-Oct-03 23:30N 45°28' E 013°12'510.0
2017-Oct-03 23:00N 45°32' E 013°17'5 9.8
2017-Oct-03 22:30N 45°35' E 013°23'5 9.9
2017-Oct-03 22:00N 45°37' E 013°29'5 9.4
2017-Oct-03 21:30N 45°37' E 013°36'5 9.3
2017-Oct-03 21:00N 45°34' E 013°41'3 4.3
2017-Oct-03 20:25N 45°33' E 013°44'0 0.0
2017-Oct-03 19:55N 45°33' E 013°44'0 0.0
2017-Oct-03 19:28N 45°33' E 013°44'0 0.0
2017-Oct-03 18:58N 45°33' E 013°44'0 0.0
2017-Oct-03 18:28N 45°33' E 013°44'0 0.0
2017-Oct-03 17:58N 45°33' E 013°44'0 0.0
2017-Oct-03 17:28N 45°33' E 013°44'0 0.0
2017-Oct-03 16:55N 45°33' E 013°44'0 0.0
2017-Oct-03 16:28N 45°33' E 013°44'0 0.0
2017-Oct-03 15:52N 45°33' E 013°44'0 0.1
2017-Oct-03 15:25N 45°34' E 013°44'0 0.1
2017-Oct-03 14:58N 45°33' E 013°44'0 0.0
2017-Oct-03 13:49N 45°33' E 013°44'0 0.0
2017-Oct-03 13:28N 45°33' E 013°44'0 0.0
2017-Oct-03 12:55N 45°33' E 013°44'0 0.0
2017-Oct-03 12:25N 45°33' E 013°44'0 0.0
2017-Oct-03 11:58N 45°33' E 013°44'0 0.0
2017-Oct-03 11:25N 45°33' E 013°44'0 0.0
2017-Oct-03 10:55N 45°33' E 013°44'0 0.0
2017-Oct-03 10:28N 45°33' E 013°44'0 0.0
2017-Oct-03 09:55N 45°33' E 013°44'0 0.0
2017-Oct-03 09:28N 45°33' E 013°44'0 0.0
2017-Oct-03 08:58N 45°33' E 013°44'0 0.0
2017-Oct-03 08:28N 45°33' E 013°44'0 0.0
2017-Oct-03 07:55N 45°33' E 013°44'0 0.0
2017-Oct-03 07:25N 45°33' E 013°44'0 0.0
2017-Oct-03 06:58N 45°33' E 013°44'0 0.0
2017-Oct-03 06:28N 45°33' E 013°44'0 0.0
2017-Oct-03 05:58N 45°33' E 013°44'0 0.0
2017-Oct-03 05:28N 45°33' E 013°44'0 0.0
2017-Oct-03 04:58N 45°33' E 013°44'0 0.0
2017-Oct-03 04:28N 45°33' E 013°44'0 0.0
2017-Oct-03 03:58N 45°33' E 013°44'0 0.0
2017-Oct-03 03:22N 45°33' E 013°44'0 0.0
2017-Oct-03 02:58N 45°33' E 013°44'0 0.0
2017-Oct-03 02:28N 45°33' E 013°44'0 0.0
2017-Oct-03 01:58N 45°33' E 013°44'0 0.0
2017-Oct-03 01:25N 45°33' E 013°44'0 0.0
2017-Oct-03 00:58N 45°33' E 013°44'0 0.0
2017-Oct-03 00:31N 45°33' E 013°44'0 0.0
2017-Oct-02 23:55N 45°33' E 013°44'0 0.0
2017-Oct-02 23:29N 45°33' E 013°44'0 0.0
2017-Oct-02 22:59N 45°33' E 013°44'0 0.0
2017-Oct-02 22:26N 45°33' E 013°44'0 0.0
2017-Oct-02 21:59N 45°33' E 013°44'0 0.0
2017-Oct-02 21:29N 45°33' E 013°44'0 0.0
2017-Oct-02 20:59N 45°33' E 013°44'0 0.0
2017-Oct-02 20:17N 45°33' E 013°44'0 0.0
2017-Oct-02 19:59N 45°33' E 013°44'0 0.0
2017-Oct-02 19:14N 45°33' E 013°44'0 0.0
2017-Oct-02 18:56N 45°33' E 013°44'0 0.0
2017-Oct-02 18:29N 45°33' E 013°44'0 0.0
2017-Oct-02 17:59N 45°33' E 013°44'0 0.0
2017-Oct-02 17:29N 45°33' E 013°44'0 0.0
2017-Oct-02 16:59N 45°33' E 013°44'0 0.0
2017-Oct-02 16:29N 45°33' E 013°44'0 0.0
2017-Oct-02 15:56N 45°33' E 013°44'0 0.0
2017-Oct-02 15:29N 45°33' E 013°44'0 0.0
2017-Oct-02 14:59N 45°33' E 013°44'0 0.0
2017-Oct-02 14:26N 45°33' E 013°44'0 0.1
2017-Oct-02 13:50N 45°34' E 013°44'0 0.1
2017-Oct-02 13:23N 45°33' E 013°44'0 0.0
2017-Oct-02 12:59N 45°33' E 013°44'0 0.0
2017-Oct-02 12:26N 45°33' E 013°44'0 0.0
2017-Oct-02 11:56N 45°33' E 013°44'0 0.0
2017-Oct-02 11:23N 45°33' E 013°44'0 0.0
2017-Oct-02 10:56N 45°33' E 013°44'0 0.0
2017-Oct-02 10:29N 45°33' E 013°44'0 0.0
2017-Oct-02 09:56N 45°33' E 013°44'0 0.0
2017-Oct-02 09:26N 45°33' E 013°44'0 0.0
2017-Oct-02 08:56N 45°33' E 013°44'0 0.0
2017-Oct-02 08:29N 45°33' E 013°44'0 0.0
2017-Oct-02 07:47N 45°33' E 013°44'0 0.0
2017-Oct-02 07:29N 45°33' E 013°44'0 0.0
2017-Oct-02 06:50N 45°33' E 013°44'0 0.0
2017-Oct-02 06:20N 45°33' E 013°44'0 0.0
2017-Oct-02 05:59N 45°33' E 013°44'0 0.0
2017-Oct-02 05:29N 45°33' E 013°44'0 0.0
2017-Oct-02 04:59N 45°33' E 013°44'0 0.0
2017-Oct-02 04:29N 45°33' E 013°44'0 0.0
2017-Oct-02 03:53N 45°33' E 013°44'0 0.0
2017-Oct-02 03:29N 45°33' E 013°44'0 0.0
2017-Oct-02 02:59N 45°33' E 013°44'0 0.0
2017-Oct-02 02:26N 45°33' E 013°44'0 0.0
2017-Oct-02 01:59N 45°33' E 013°44'0 0.0
2017-Oct-02 01:26N 45°33' E 013°44'0 0.0
2017-Oct-02 00:53N 45°33' E 013°44'0 0.0
2017-Oct-02 00:29N 45°33' E 013°44'0 0.0
2017-Oct-01 23:59N 45°33' E 013°44'0 0.0
2017-Oct-01 23:26N 45°33' E 013°44'0 0.0
2017-Oct-01 22:59N 45°33' E 013°44'0 0.0
2017-Oct-01 22:26N 45°33' E 013°44'0 0.0
2017-Oct-01 21:53N 45°33' E 013°44'0 0.0
2017-Oct-01 21:29N 45°33' E 013°44'0 0.0
2017-Oct-01 20:59N 45°33' E 013°44'0 0.0
2017-Oct-01 20:29N 45°33' E 013°44'0 0.0
2017-Oct-01 19:59N 45°33' E 013°44'0 0.0
2017-Oct-01 19:29N 45°33' E 013°44'0 0.0
2017-Oct-01 18:59N 45°33' E 013°44'0 0.0
2017-Oct-01 18:29N 45°33' E 013°44'0 0.0
2017-Oct-01 17:59N 45°33' E 013°44'0 0.0
2017-Oct-01 17:29N 45°33' E 013°44'0 0.0
2017-Oct-01 16:59N 45°33' E 013°44'0 0.0
2017-Oct-01 16:29N 45°33' E 013°44'0 0.0
2017-Oct-01 15:59N 45°33' E 013°44'0 0.0
2017-Oct-01 15:26N 45°33' E 013°44'0 0.0
2017-Oct-01 14:59N 45°33' E 013°44'0 0.0
2017-Oct-01 14:29N 45°33' E 013°44'0 0.0
2017-Oct-01 13:56N 45°33' E 013°44'0 0.0
2017-Oct-01 13:29N 45°33' E 013°44'0 0.0
2017-Oct-01 12:59N 45°33' E 013°44'0 0.0
2017-Oct-01 12:26N 45°33' E 013°44'0 0.0
2017-Oct-01 11:59N 45°33' E 013°44'0 0.0
2017-Oct-01 11:26N 45°33' E 013°44'0 0.0
2017-Oct-01 10:59N 45°33' E 013°44'0 0.0
2017-Oct-01 10:29N 45°33' E 013°44'0 0.0
2017-Oct-01 09:53N 45°33' E 013°44'0 0.0
2017-Oct-01 09:29N 45°33' E 013°44'0 0.0
2017-Oct-01 08:53N 45°33' E 013°44'0 0.0
2017-Oct-01 08:29N 45°33' E 013°44'0 0.0
2017-Oct-01 07:59N 45°33' E 013°44'0 0.0
2017-Oct-01 07:29N 45°33' E 013°44'0 0.0
2017-Oct-01 06:59N 45°33' E 013°44'0 0.0
2017-Oct-01 06:29N 45°33' E 013°44'0 0.0
2017-Oct-01 05:59N 45°33' E 013°44'0 0.0
2017-Oct-01 05:29N 45°33' E 013°44'0 0.0
2017-Oct-01 04:59N 45°33' E 013°44'0 0.0
2017-Oct-01 04:29N 45°33' E 013°44'0 0.0
2017-Oct-01 03:56N 45°33' E 013°44'0 0.0
2017-Oct-01 03:26N 45°33' E 013°44'0 0.0
2017-Oct-01 02:59N 45°33' E 013°44'0 0.0
2017-Sep-30 01:59N 45°33' E 013°44'0 0.0
2017-Sep-30 01:29N 45°33' E 013°44'0 0.0
2017-Sep-30 00:59N 45°33' E 013°44'0 0.0
2017-Sep-30 00:29N 45°33' E 013°44'0 0.0
2017-Sep-29 23:56N 45°33' E 013°44'0 0.0
2017-Sep-29 23:29N 45°33' E 013°44'0 0.0
2017-Sep-29 22:59N 45°33' E 013°44'0 0.0
2017-Sep-29 22:29N 45°33' E 013°44'0 0.0
2017-Sep-29 21:59N 45°33' E 013°44'0 0.0
2017-Sep-29 21:29N 45°33' E 013°44'0 0.0
2017-Sep-29 20:59N 45°33' E 013°44'0 0.0
2017-Sep-29 20:26N 45°33' E 013°44'0 0.0
2017-Sep-29 19:59N 45°33' E 013°44'0 0.0
2017-Sep-29 19:26N 45°33' E 013°44'0 0.0
2017-Sep-29 18:59N 45°33' E 013°44'0 0.0
2017-Sep-29 18:26N 45°33' E 013°44'0 0.0
2017-Sep-29 17:56N 45°33' E 013°44'0 0.0
2017-Sep-29 17:29N 45°33' E 013°44'0 0.0
2017-Sep-29 16:59N 45°33' E 013°44'0 0.0
2017-Sep-29 16:29N 45°33' E 013°44'0 0.0
2017-Sep-29 15:59N 45°33' E 013°44'0 0.0
2017-Sep-29 15:29N 45°33' E 013°44'0 0.0
2017-Sep-29 14:59N 45°33' E 013°44'0 0.0
2017-Sep-29 14:29N 45°33' E 013°44'0 0.0
2017-Sep-29 13:59N 45°33' E 013°44'0 0.0
2017-Sep-29 13:29N 45°33' E 013°44'0 0.0
2017-Sep-29 12:59N 45°33' E 013°44'0 0.1
2017-Sep-29 12:29N 45°34' E 013°44'0 0.1
2017-Sep-29 11:59N 45°33' E 013°44'0 0.0
2017-Sep-29 11:26N 45°33' E 013°44'0 0.0
2017-Sep-29 10:59N 45°33' E 013°44'0 0.0
2017-Sep-29 10:29N 45°33' E 013°44'0 0.0
2017-Sep-29 09:59N 45°33' E 013°44'0 0.0
2017-Sep-29 09:29N 45°33' E 013°44'0 0.0
2017-Sep-29 08:59N 45°33' E 013°44'0 0.0
2017-Sep-29 08:23N 45°33' E 013°44'0 0.0
2017-Sep-29 07:59N 45°33' E 013°44'0 0.0
2017-Sep-29 07:29N 45°33' E 013°44'0 0.0
2017-Sep-29 06:59N 45°33' E 013°44'0 0.0
2017-Sep-29 06:14N 45°33' E 013°44'0 0.0
2017-Sep-29 05:59N 45°33' E 013°44'0 0.0
2017-Sep-29 05:14N 45°33' E 013°44'0 0.0
2017-Sep-29 04:59N 45°33' E 013°44'0 0.8
2017-Sep-29 04:30N 45°33' E 013°44'2 4.2
2017-Sep-29 04:00N 45°35' E 013°41'1 1.2
2017-Sep-29 03:30N 45°35' E 013°41'0 0.0
2017-Sep-29 03:00N 45°35' E 013°41'0 0.0
2017-Sep-29 02:30N 45°35' E 013°41'0 0.1
2017-Sep-29 01:57N 45°35' E 013°41'0 0.1
2017-Sep-29 01:30N 45°35' E 013°41'0 0.0
2017-Sep-29 01:00N 45°35' E 013°41'0 0.0
2017-Sep-29 00:30N 45°35' E 013°41'0 0.1
2017-Sep-29 00:00N 45°35' E 013°41'0 0.1
2017-Sep-28 23:30N 45°35' E 013°41'0 0.0
2017-Sep-28 23:00N 45°35' E 013°41'0 0.1
2017-Sep-28 22:30N 45°35' E 013°41'0 0.1
2017-Sep-28 22:00N 45°35' E 013°41'0 0.0
2017-Sep-28 21:30N 45°35' E 013°41'0 0.7
2017-Sep-28 21:00N 45°35' E 013°40'2 4.1
2017-Sep-28 20:31N 45°35' E 013°37'4 7.2
2017-Sep-28 20:00N 45°35' E 013°32'4 7.6
2017-Sep-28 19:30N 45°32' E 013°28'4 7.4
2017-Sep-28 19:00N 45°30' E 013°23'3 6.9
2017-Sep-28 18:30N 45°29' E 013°19'3 6.9
2017-Sep-28 18:00N 45°27' E 013°15'3 6.4
2017-Sep-28 17:31N 45°24' E 013°12'4 7.8
2017-Sep-28 17:00N 45°20' E 013°13'4 7.6
2017-Sep-28 16:30N 45°17' E 013°14'4 7.8
2017-Sep-28 16:00N 45°13' E 013°15'4 7.9
2017-Sep-28 15:30N 45°09' E 013°16'4 8.2
2017-Sep-28 15:00N 45°05' E 013°17'4 8.2
2017-Sep-28 14:30N 45°01' E 013°18'3 6.6
2017-Sep-28 14:00N 44°58' E 013°20'4 7.9
2017-Sep-28 13:30N 44°55' E 013°23'4 8.1
2017-Sep-28 13:00N 44°51' E 013°26'4 8.8
2017-Sep-28 12:30N 44°48' E 013°30'4 8.9
2017-Sep-28 12:00N 44°44' E 013°33'4 8.8
2017-Sep-28 11:31N 44°40' E 013°37'4 8.8
2017-Sep-28 11:00N 44°37' E 013°40'4 8.6
2017-Sep-28 10:30N 44°33' E 013°43'4 8.5
2017-Sep-28 10:00N 44°30' E 013°47'7 8.2
2017-Sep-28 09:05N 44°23' E 013°53'1 8.2
2017-Sep-28 08:59N 44°23' E 013°53'  
2017-Sep-25 04:11N 36°36' E 014°47'3 8.7
2017-Sep-25 03:54N 36°37' E 014°44'4 8.9
2017-Sep-25 03:25N 36°38' E 014°39'4 8.9
2017-Sep-25 03:00N 36°40' E 014°35'8 8.7
2017-Sep-25 02:04N 36°43' E 014°25'2 8.6
2017-Sep-25 01:52N 36°43' E 014°23'  

Dump ship's entire track history